Time;durP1;ratioP1;P1;durP2;ratioP2;P2;SDS_P1;SDS_P2;PMS_P1;PMS_P2;Temp;Humidity;BMP_temperature;BMP_pressure;BME280_temperature;BME280_humidity;BME280_pressure;Samples;Min_cycle;Max_cycle;Signal;HPM_P1;HPM_P2
2023/05/18 00:01:06;;;;;;;9.20;3.13;;;;;;;12.15;49.45;102677.75;5017365;28;20044;-65
2023/05/18 00:03:32;;;;;;;8.05;3.33;;;;;;;12.12;49.33;102680.97;5018307;28;20077;-65
2023/05/18 00:06:03;;;;;;;9.90;2.90;;;;;;;11.99;49.97;102666.03;5013904;28;20104;-65
2023/05/18 00:08:32;;;;;;;8.35;3.10;;;;;;;12.01;49.99;102677.78;5012688;28;20076;-65
2023/05/18 00:10:57;;;;;;;15.88;3.30;;;;;;;11.93;50.10;102680.81;5013580;28;20041;-65
2023/05/18 00:13:22;;;;;;;10.77;3.10;;;;;;;11.90;50.00;102677.59;5030368;28;20038;-65
2023/05/18 00:15:48;;;;;;;10.70;3.42;;;;;;;11.85;50.26;102672.69;5032274;28;20045;-65
2023/05/18 00:18:13;;;;;;;10.30;3.28;;;;;;;11.79;50.06;102676.31;5019392;28;20025;-65
2023/05/18 00:20:38;;;;;;;9.82;3.10;;;;;;;11.80;49.96;102675.25;5013532;28;20061;-65
2023/05/18 00:23:05;;;;;;;8.10;2.92;;;;;;;11.79;50.19;102679.09;5012791;28;20118;-66
2023/05/18 00:25:30;;;;;;;10.65;3.15;;;;;;;11.78;50.22;102678.22;5012890;28;20108;-66
2023/05/18 00:27:55;;;;;;;11.40;3.10;;;;;;;11.75;50.24;102683.38;5013449;28;20117;-65
2023/05/18 00:30:23;;;;;;;10.60;3.40;;;;;;;11.82;50.34;102678.66;5012552;28;20109;-65
2023/05/18 00:32:48;;;;;;;9.15;2.80;;;;;;;11.80;50.34;102672.47;5015613;28;20095;-65
2023/05/18 00:35:14;;;;;;;10.20;2.83;;;;;;;11.72;50.75;102686.59;5018927;28;20540;-65
2023/05/18 00:37:39;;;;;;;10.43;3.30;;;;;;;11.73;50.42;102677.19;5031799;28;20060;-65
2023/05/18 00:40:05;;;;;;;11.13;2.80;;;;;;;11.76;49.99;102682.31;5032973;28;20071;-65
2023/05/18 00:42:30;;;;;;;9.05;3.10;;;;;;;11.65;50.47;102682.97;5032786;28;20519;-65
2023/05/18 00:44:56;;;;;;;6.82;3.13;;;;;;;11.67;50.76;102691.94;5030117;28;20029;-66
2023/05/18 00:47:21;;;;;;;8.52;3.05;;;;;;;11.65;50.50;102688.53;5030403;28;20026;-66
2023/05/18 00:49:46;;;;;;;7.38;3.17;;;;;;;11.59;50.49;102684.66;5012658;28;20044;-65
2023/05/18 00:52:12;;;;;;;10.65;3.65;;;;;;;11.65;50.55;102688.53;5014640;28;20025;-66
2023/05/18 00:54:37;;;;;;;9.52;2.83;;;;;;;11.45;51.09;102678.28;5011400;28;20051;-65
2023/05/18 00:57:02;;;;;;;11.50;3.53;;;;;;;11.46;50.93;102682.75;5012379;28;20144;-65
2023/05/18 00:59:29;;;;;;;9.93;3.50;;;;;;;11.53;51.03;102689.19;5011086;28;20033;-65
2023/05/18 01:01:55;;;;;;;9.85;3.38;;;;;;;11.45;51.04;102682.97;5012668;28;20040;-66
2023/05/18 01:04:20;;;;;;;10.18;3.05;;;;;;;11.33;51.26;102685.56;5012358;28;20022;-66
2023/05/18 01:06:46;;;;;;;7.75;3.08;;;;;;;11.37;51.09;102686.84;5011778;28;20030;-65
2023/05/18 01:09:13;;;;;;;9.07;3.40;;;;;;;11.32;51.27;102686.63;5013349;28;20029;-65
2023/05/18 01:11:38;;;;;;;10.02;3.65;;;;;;;11.31;51.53;102696.88;5022458;28;20034;-66
2023/05/18 01:14:28;;;;;;;8.27;3.38;;;;;;;11.30;51.32;102688.75;5020930;28;20144;-64
2023/05/18 01:17:01;;;;;;;5.63;3.22;;;;;;;11.22;51.65;102689.81;5031927;28;20031;-65
2023/05/18 01:19:36;;;;;;;9.50;3.60;;;;;;;11.22;51.85;102694.53;5031634;28;20032;-66
2023/05/18 01:22:49;;;;;;;13.73;3.05;;;;;;;11.34;51.15;102697.53;5031943;28;20378;-65
2023/05/18 01:25:33;;;;;;;10.18;3.35;;;;;;;11.30;51.36;102686.81;5023754;28;20926;-65
2023/05/18 01:28:05;;;;;;;10.88;3.00;;;;;;;11.14;51.99;102692.81;5019447;28;20030;-65
2023/05/18 01:30:33;;;;;;;14.15;3.78;;;;;;;11.19;51.77;102700.50;5031212;28;20033;-65
2023/05/18 01:32:58;;;;;;;10.05;3.25;;;;;;;11.12;51.95;102697.72;5031281;28;20028;-66
2023/05/18 01:35:23;;;;;;;9.88;3.25;;;;;;;11.12;51.92;102694.97;5031390;28;20025;-65
2023/05/18 01:37:49;;;;;;;11.02;3.85;;;;;;;11.07;52.39;102701.13;5014091;28;20030;-65
2023/05/18 01:40:14;;;;;;;11.32;3.58;;;;;;;10.97;51.96;102689.59;5026946;28;20038;-65
2023/05/18 01:42:45;;;;;;;12.07;3.58;;;;;;;11.01;52.43;102693.66;5026378;28;20508;-65
2023/05/18 01:45:20;;;;;;;8.98;3.42;;;;;;;11.00;52.38;102696.63;5011656;28;20069;-65
2023/05/18 01:47:48;;;;;;;9.55;3.70;;;;;;;10.86;52.81;102683.78;5020332;28;20107;-65
2023/05/18 01:50:17;;;;;;;7.65;3.42;;;;;;;10.87;52.87;102697.44;5017861;28;20117;-65
2023/05/18 01:52:53;;;;;;;11.60;3.15;;;;;;;10.87;52.51;102691.91;5011101;28;20123;-65
2023/05/18 01:55:20;;;;;;;8.63;3.05;;;;;;;10.81;52.74;102689.97;5011563;28;20088;-65
2023/05/18 01:57:48;;;;;;;10.13;3.35;;;;;;;10.87;52.34;102691.91;5014237;28;20034;-65
2023/05/18 02:00:16;;;;;;;10.48;3.38;;;;;;;10.82;52.60;102692.53;5012320;28;20063;-65
2023/05/18 02:02:42;;;;;;;10.15;3.35;;;;;;;10.78;52.49;102690.38;5013303;28;20481;-66
2023/05/18 02:05:11;;;;;;;8.25;3.28;;;;;;;10.80;52.62;102691.03;5022541;28;20118;-66
2023/05/18 02:07:36;;;;;;;10.93;3.13;;;;;;;10.76;52.80;102689.72;5014249;28;20483;-65
2023/05/18 02:10:02;;;;;;;11.43;3.15;;;;;;;10.75;52.60;102688.88;5013332;28;20026;-66
2023/05/18 02:12:27;;;;;;;5.85;3.22;;;;;;;10.77;52.71;102685.91;5010098;28;20030;-65
2023/05/18 02:14:54;;;;;;;8.82;3.17;;;;;;;10.77;52.62;102681.22;5019848;28;20070;-65
2023/05/18 02:17:20;;;;;;;8.77;3.38;;;;;;;10.70;52.81;102682.25;5014446;28;20104;-65
2023/05/18 02:19:46;;;;;;;8.63;3.60;;;;;;;10.60;53.07;102687.34;5012325;28;20390;-65
2023/05/18 02:22:11;;;;;;;8.85;3.78;;;;;;;10.62;53.33;102691.63;5012344;28;20034;-65
2023/05/18 02:24:36;;;;;;;8.18;3.50;;;;;;;10.62;53.10;102685.22;5019457;28;20477;-65
2023/05/18 02:27:02;;;;;;;9.05;3.30;;;;;;;10.64;52.82;102685.84;5029221;28;20030;-66
2023/05/18 02:29:27;;;;;;;7.43;3.15;;;;;;;10.65;53.28;102684.78;5026810;28;20022;-65
2023/05/18 02:31:52;;;;;;;9.95;3.30;;;;;;;10.67;53.16;102675.19;5028519;28;20383;-65
2023/05/18 02:34:18;;;;;;;7.93;3.17;;;;;;;10.61;53.21;102667.72;5026916;28;20056;-65
2023/05/18 02:36:44;;;;;;;9.20;3.40;;;;;;;10.60;53.13;102673.44;5029966;28;20057;-65
2023/05/18 02:39:10;;;;;;;11.07;3.50;;;;;;;10.62;52.91;102679.66;5012976;28;20498;-66
2023/05/18 02:41:36;;;;;;;7.45;3.42;;;;;;;10.59;53.66;102674.53;5015442;28;20041;-66
2023/05/18 02:44:02;;;;;;;8.23;3.28;;;;;;;10.58;53.10;102670.91;5028945;28;20079;-66
2023/05/18 02:46:28;;;;;;;11.00;4.20;;;;;;;10.55;53.29;102672.16;5018060;28;20034;-65
2023/05/18 02:48:53;;;;;;;6.85;3.25;;;;;;;10.53;53.12;102667.88;5011669;28;20385;-65
2023/05/18 02:51:20;;;;;;;9.93;3.65;;;;;;;10.54;53.35;102669.59;5011136;28;20104;-65
2023/05/18 02:53:46;;;;;;;10.45;3.40;;;;;;;10.53;52.97;102670.63;5010120;28;20080;-65
2023/05/18 02:56:11;;;;;;;8.75;3.22;;;;;;;10.50;53.24;102671.09;5013384;28;20121;-65
2023/05/18 02:58:37;;;;;;;9.30;3.50;;;;;;;10.45;53.51;102671.72;5009823;28;20034;-66
2023/05/18 03:01:06;;;;;;;11.20;3.40;;;;;;;10.45;53.70;102673.59;5010235;28;20077;-66
2023/05/18 03:03:32;;;;;;;11.35;3.67;;;;;;;10.43;53.68;102673.81;5020465;28;20022;-65
2023/05/18 03:05:57;;;;;;;7.70;3.60;;;;;;;10.33;53.80;102673.34;5017385;28;20071;-65
2023/05/18 03:08:22;;;;;;;7.80;4.00;;;;;;;10.39;53.74;102677.22;5009761;28;20371;-65
2023/05/18 03:10:49;;;;;;;11.27;3.30;;;;;;;10.35;53.98;102676.78;5014098;28;20025;-65
2023/05/18 03:13:14;;;;;;;10.43;3.75;;;;;;;10.36;53.51;102683.19;5024328;28;20052;-65
2023/05/18 03:15:40;;;;;;;7.78;3.70;;;;;;;10.34;53.23;102677.84;5019810;28;20042;-65
2023/05/18 03:18:05;;;;;;;6.40;3.50;;;;;;;10.30;53.64;102673.78;5029275;28;20068;-65
2023/05/18 03:20:30;;;;;;;9.15;3.65;;;;;;;10.36;54.02;102678.50;5012445;28;20062;-66
2023/05/18 03:22:56;;;;;;;8.50;3.60;;;;;;;10.27;53.87;102679.75;5011723;28;20022;-65
2023/05/18 03:25:24;;;;;;;8.73;3.25;;;;;;;10.30;53.36;102673.78;5013495;28;20026;-66
2023/05/18 03:27:51;;;;;;;6.85;3.50;;;;;;;10.30;53.90;102674.63;5025749;28;20032;-65
2023/05/18 03:30:20;;;;;;;7.50;3.45;;;;;;;10.32;53.94;102680.81;5034028;28;20428;-65
2023/05/18 03:32:46;;;;;;;6.68;3.38;;;;;;;10.28;53.90;102678.66;5032637;28;20030;-66
2023/05/18 03:35:12;;;;;;;9.10;3.63;;;;;;;10.24;54.04;102671.78;5032524;28;20031;-66
2023/05/18 03:37:37;;;;;;;7.93;3.88;;;;;;;10.20;53.78;102676.03;5033470;28;20025;-66
2023/05/18 03:40:13;;;;;;;8.23;3.80;;;;;;;10.24;54.01;102674.56;5033387;28;20141;-65
2023/05/18 03:42:42;;;;;;;8.30;3.67;;;;;;;10.16;54.06;102669.19;5027846;28;20482;-66
2023/05/18 03:45:09;;;;;;;8.38;3.53;;;;;;;10.17;54.20;102674.53;5013935;28;20044;-65
2023/05/18 03:47:34;;;;;;;12.27;3.60;;;;;;;10.17;54.27;102673.66;5013124;28;20136;-65
2023/05/18 03:50:00;;;;;;;8.48;3.78;;;;;;;10.12;54.28;102676.22;5013598;28;20022;-65
2023/05/18 03:52:25;;;;;;;8.15;3.83;;;;;;;10.09;54.29;102678.31;5013742;28;20049;-65
2023/05/18 03:54:50;;;;;;;9.80;4.35;;;;;;;10.02;54.43;102674.69;5012736;28;20033;-65
2023/05/18 03:57:16;;;;;;;10.65;4.28;;;;;;;10.02;54.66;102680.22;5013257;28;20058;-66
2023/05/18 03:59:43;;;;;;;9.68;4.70;;;;;;;10.05;54.70;102682.56;5028289;28;20030;-66
2023/05/18 04:02:10;;;;;;;15.38;4.25;;;;;;;9.97;54.79;102682.75;5029182;28;20040;-66
2023/05/18 04:04:35;;;;;;;11.25;4.00;;;;;;;10.04;54.32;102680.03;5031234;28;20037;-65
2023/05/18 04:07:01;;;;;;;13.35;3.65;;;;;;;10.06;54.67;102683.44;5033420;28;20084;-66
2023/05/18 04:09:27;;;;;;;8.55;3.83;;;;;;;10.09;54.05;102689.44;5032430;28;20032;-65
2023/05/18 04:11:52;;;;;;;8.55;3.70;;;;;;;10.00;54.43;102689.81;5033297;28;20034;-65
2023/05/18 04:14:19;;;;;;;13.02;4.45;;;;;;;10.07;54.31;102694.34;5029848;28;20033;-65
2023/05/18 04:16:45;;;;;;;10.90;4.03;;;;;;;10.00;54.43;102693.44;5027982;28;20409;-65
2023/05/18 04:19:10;;;;;;;10.48;3.97;;;;;;;10.11;54.59;102696.72;5021321;28;20030;-65
2023/05/18 04:21:36;;;;;;;9.43;3.83;;;;;;;10.11;54.18;102694.78;5032219;28;20028;-65
2023/05/18 04:24:04;;;;;;;8.07;3.67;;;;;;;10.06;54.24;102706.50;5032660;28;20029;-66
2023/05/18 04:26:30;;;;;;;9.27;3.97;;;;;;;10.08;54.27;102704.38;5033017;28;20067;-66
2023/05/18 04:28:58;;;;;;;7.45;3.67;;;;;;;10.08;54.49;102701.59;5031422;28;20036;-65
2023/05/18 04:31:28;;;;;;;12.55;4.00;;;;;;;9.99;54.71;102700.06;5030165;28;20488;-65
2023/05/18 04:33:53;;;;;;;12.90;4.38;;;;;;;10.01;54.59;102700.69;5011552;28;20068;-65
2023/05/18 04:36:19;;;;;;;9.50;3.92;;;;;;;10.02;54.78;102709.88;5014431;28;20053;-66
2023/05/18 04:38:45;;;;;;;11.57;4.25;;;;;;;10.07;54.86;102708.22;5031149;28;20029;-66
2023/05/18 04:41:10;;;;;;;8.13;4.03;;;;;;;10.06;54.50;102706.50;5032473;28;20646;-65
2023/05/18 04:43:36;;;;;;;13.32;4.60;;;;;;;10.01;54.67;102702.63;5026850;28;20809;-65
2023/05/18 04:46:01;;;;;;;11.32;4.43;;;;;;;9.98;54.73;102708.56;5032393;28;20056;-65
2023/05/18 04:48:28;;;;;;;14.88;4.00;;;;;;;10.02;54.67;102709.88;5031995;28;20477;-66
2023/05/18 04:50:54;;;;;;;10.70;4.03;;;;;;;10.05;55.16;102713.09;5031947;28;20017;-65
2023/05/18 04:53:23;;;;;;;12.00;4.38;;;;;;;10.09;54.72;102711.63;5025358;28;20034;-65
2023/05/18 04:55:48;;;;;;;10.30;4.57;;;;;;;10.06;54.69;102716.72;5031865;28;20025;-66
2023/05/18 04:58:15;;;;;;;9.88;4.43;;;;;;;10.11;54.79;102717.00;5031750;28;20432;-66
2023/05/18 05:00:41;;;;;;;11.20;4.30;;;;;;;10.07;55.35;102716.53;5028758;28;20116;-65
2023/05/18 05:03:06;;;;;;;8.75;4.47;;;;;;;10.11;55.17;102718.91;5012493;28;20463;-66
2023/05/18 05:05:31;;;;;;;10.45;4.13;;;;;;;10.12;54.63;102726.16;5012121;28;20042;-66
2023/05/18 05:07:57;;;;;;;10.52;4.72;;;;;;;10.16;55.05;102720.00;5012096;28;20045;-66
2023/05/18 05:10:23;;;;;;;9.20;3.95;;;;;;;10.17;54.75;102718.06;5012401;28;20044;-66
2023/05/18 05:12:49;;;;;;;10.73;4.20;;;;;;;10.11;55.20;102719.75;5011096;28;20433;-66
2023/05/18 05:15:14;;;;;;;9.77;4.28;;;;;;;10.19;55.21;102715.97;5011453;28;20054;-66
2023/05/18 05:17:40;;;;;;;7.45;4.18;;;;;;;10.16;55.44;102721.91;5029545;28;20072;-66
2023/05/18 05:20:06;;;;;;;13.98;4.80;;;;;;;10.16;55.38;102713.59;5017125;28;20029;-66
2023/05/18 05:22:31;;;;;;;12.77;4.90;;;;;;;10.24;55.16;102721.75;5011061;28;20108;-66
2023/05/18 05:24:57;;;;;;;11.68;4.53;;;;;;;10.20;55.17;102728.75;5021256;28;20663;-66
2023/05/18 05:27:24;;;;;;;11.13;4.20;;;;;;;10.22;55.20;102723.88;5028441;28;20033;-66
2023/05/18 05:29:50;;;;;;;9.98;4.10;;;;;;;10.23;55.37;102717.25;5010999;28;20025;-66
2023/05/18 05:32:16;;;;;;;13.60;4.35;;;;;;;10.32;54.71;102722.47;5015632;28;20057;-66
2023/05/18 05:34:45;;;;;;;8.60;4.68;;;;;;;10.38;54.37;102736.59;5011787;28;20116;-66
2023/05/18 05:37:11;;;;;;;10.40;4.28;;;;;;;10.42;54.25;102724.88;5012579;28;20061;-66
2023/05/18 05:39:36;;;;;;;9.65;4.32;;;;;;;10.36;54.37;102725.69;5010273;28;20053;-66
2023/05/18 05:42:01;;;;;;;15.73;5.22;;;;;;;10.38;54.22;102726.34;5019960;28;20502;-65
2023/05/18 05:44:27;;;;;;;9.55;4.32;;;;;;;10.41;54.38;102728.69;5018817;28;20032;-66
2023/05/18 05:46:52;;;;;;;10.25;4.32;;;;;;;10.48;53.94;102724.03;5010998;28;20041;-66
2023/05/18 05:49:17;;;;;;;8.80;4.47;;;;;;;10.50;54.09;102723.84;5011777;28;20061;-65
2023/05/18 05:51:42;;;;;;;10.32;4.20;;;;;;;10.53;53.89;102724.28;5011067;28;20393;-66
2023/05/18 05:54:08;;;;;;;11.98;4.80;;;;;;;10.48;54.18;102724.03;5030596;28;20038;-66
2023/05/18 05:56:33;;;;;;;11.60;4.82;;;;;;;10.52;53.60;102730.88;5028689;28;20908;-66
2023/05/18 05:58:58;;;;;;;12.45;4.68;;;;;;;10.55;53.28;102722.13;5022530;28;20037;-66
2023/05/18 06:01:24;;;;;;;9.65;4.80;;;;;;;10.59;53.61;102727.28;5010588;28;20030;-66
2023/05/18 06:03:49;;;;;;;15.88;5.18;;;;;;;10.56;53.50;102732.16;5012786;28;20048;-66
2023/05/18 06:06:14;;;;;;;14.70;5.35;;;;;;;10.62;53.76;102721.31;5011537;28;20038;-65
2023/05/18 06:08:40;;;;;;;11.90;5.15;;;;;;;10.61;53.45;102727.91;5010761;28;20076;-66
2023/05/18 06:11:05;;;;;;;9.30;4.85;;;;;;;10.65;53.72;102730.09;5011035;28;20053;-66
2023/05/18 06:13:31;;;;;;;9.82;4.82;;;;;;;10.67;53.25;102730.72;5019965;28;20034;-66
2023/05/18 06:15:56;;;;;;;8.60;4.82;;;;;;;10.66;52.96;102730.94;5020792;28;20034;-66
2023/05/18 06:18:22;;;;;;;11.10;4.70;;;;;;;10.62;53.54;102732.44;5030948;28;20037;-66
2023/05/18 06:20:47;;;;;;;13.63;5.47;;;;;;;10.67;53.34;102735.44;5030942;28;20037;-66
2023/05/18 06:23:12;;;;;;;11.32;5.50;;;;;;;10.64;53.31;102733.91;5029921;28;20083;-66
2023/05/18 06:25:37;;;;;;;10.10;5.25;;;;;;;10.65;53.64;102732.00;5030493;28;20033;-66
2023/05/18 06:28:03;;;;;;;10.75;5.20;;;;;;;10.73;53.32;102731.84;5029765;28;20034;-66
2023/05/18 06:30:28;;;;;;;9.13;4.60;;;;;;;10.75;53.19;102730.53;5025032;28;20501;-65
2023/05/18 06:32:53;;;;;;;11.38;5.18;;;;;;;10.84;53.31;102733.97;5011089;28;20499;-66
2023/05/18 06:35:19;;;;;;;10.00;5.28;;;;;;;10.86;52.79;102731.88;5010012;28;20038;-65
2023/05/18 06:37:44;;;;;;;14.55;5.70;;;;;;;10.97;52.86;102731.25;5009222;28;20040;-65
2023/05/18 06:40:09;;;;;;;11.10;5.32;;;;;;;11.08;52.92;102729.75;5010769;28;20029;-66
2023/05/18 06:42:35;;;;;;;10.70;5.13;;;;;;;11.10;52.37;102735.13;5009180;28;20030;-65
2023/05/18 06:45:01;;;;;;;13.23;5.38;;;;;;;11.06;51.80;102741.09;5009687;28;20022;-65
2023/05/18 06:47:26;;;;;;;11.55;5.03;;;;;;;11.12;52.34;102744.09;5029316;28;20078;-64
2023/05/18 06:49:52;;;;;;;12.88;4.88;;;;;;;11.10;51.80;102741.53;5029862;28;20519;-66
2023/05/18 06:52:17;;;;;;;11.10;5.35;;;;;;;11.09;52.01;102738.97;5029855;28;20038;-65
2023/05/18 06:54:42;;;;;;;12.65;5.38;;;;;;;11.12;52.37;102736.63;5030254;28;20033;-65
2023/05/18 06:57:08;;;;;;;12.80;5.60;;;;;;;11.25;52.29;102733.88;5027176;28;20115;-64
2023/05/18 06:59:36;;;;;;;8.32;5.00;;;;;;;11.42;53.02;102744.56;5023766;28;20037;-65
2023/05/18 07:02:02;;;;;;;10.30;5.30;;;;;;;11.51;54.15;102740.50;5014593;28;20512;-65
2023/05/18 07:04:27;;;;;;;10.85;4.70;;;;;;;11.63;52.37;102740.72;5015501;28;20029;-66
2023/05/18 07:06:54;;;;;;;9.65;4.75;;;;;;;11.70;51.73;102742.44;5011684;28;20030;-65
2023/05/18 07:09:21;;;;;;;10.93;5.15;;;;;;;11.72;51.26;102745.03;5013459;28;20120;-65
2023/05/18 07:11:46;;;;;;;11.60;5.10;;;;;;;11.70;50.59;102747.16;5013545;28;20470;-68
2023/05/18 07:14:11;;;;;;;16.35;5.95;;;;;;;11.73;51.03;102746.72;5015691;28;20055;-67
2023/05/18 07:16:37;;;;;;;13.80;5.10;;;;;;;11.81;51.53;102754.84;5013221;28;20030;-67
2023/05/18 07:19:03;;;;;;;9.02;5.28;;;;;;;11.78;50.79;102761.69;5008300;28;20034;-68
2023/05/18 07:21:28;;;;;;;8.07;4.68;;;;;;;11.81;50.87;102754.84;5013075;28;20048;-66
2023/05/18 07:23:54;;;;;;;14.25;5.78;;;;;;;11.86;50.96;102749.50;5019007;28;20047;-66
2023/05/18 07:26:21;;;;;;;11.70;5.35;;;;;;;11.93;51.05;102755.09;5021152;28;20034;-66
2023/05/18 07:28:47;;;;;;;9.68;5.05;;;;;;;11.88;50.63;102755.75;5032445;28;20021;-66
2023/05/18 07:31:15;;;;;;;10.85;5.00;;;;;;;11.99;50.63;102763.44;5024569;28;20105;-66
2023/05/18 07:33:40;;;;;;;11.60;5.28;;;;;;;12.02;49.76;102763.00;5018017;28;20037;-66
2023/05/18 07:36:06;;;;;;;11.98;4.97;;;;;;;11.99;50.22;102755.09;5016707;28;20029;-67
2023/05/18 07:38:31;;;;;;;12.05;5.47;;;;;;;12.06;50.99;102762.56;5017048;28;20065;-67
2023/05/18 07:40:58;;;;;;;14.90;5.40;;;;;;;12.17;50.74;102756.34;5032885;28;20100;-67
2023/05/18 07:43:24;;;;;;;10.82;4.63;;;;;;;12.23;50.48;102763.81;5015711;28;20041;-67
2023/05/18 07:45:49;;;;;;;13.15;5.35;;;;;;;12.29;49.10;102762.94;5012424;28;20022;-67
2023/05/18 07:48:15;;;;;;;14.68;4.93;;;;;;;12.29;49.28;102761.00;5009527;28;20097;-66
2023/05/18 07:50:40;;;;;;;11.25;5.07;;;;;;;12.39;50.31;102768.91;5005918;28;20102;-66
2023/05/18 07:53:05;;;;;;;16.10;5.15;;;;;;;12.57;49.48;102765.41;5008087;28;20064;-65
2023/05/18 07:55:33;;;;;;;10.77;5.60;;;;;;;12.73;49.64;102769.63;5003111;28;20061;-66
2023/05/18 07:57:59;;;;;;;14.60;5.30;;;;;;;12.85;49.01;102773.47;5017824;28;20366;-65
2023/05/18 08:00:25;;;;;;;14.02;5.80;;;;;;;12.93;48.98;102772.34;5012887;28;20064;-66
2023/05/18 08:02:50;;;;;;;11.93;5.65;;;;;;;13.03;48.65;102778.28;5011158;28;20069;-65
2023/05/18 08:05:17;;;;;;;11.90;5.03;;;;;;;13.10;48.34;102776.34;5012856;28;20034;-65
2023/05/18 08:07:42;;;;;;;18.23;5.82;;;;;;;13.18;48.04;102772.44;5008629;28;20034;-65
2023/05/18 08:10:08;;;;;;;11.27;5.55;;;;;;;13.27;47.78;102777.53;5015679;28;20037;-65
2023/05/18 08:12:33;;;;;;;10.23;4.60;;;;;;;13.28;47.04;102772.81;5012555;28;20041;-65
2023/05/18 08:14:59;;;;;;;14.63;5.35;;;;;;;13.33;46.86;102770.22;5011600;28;20038;-65
2023/05/18 08:17:24;;;;;;;14.20;5.50;;;;;;;13.38;47.55;102773.19;5012787;28;20096;-65
2023/05/18 08:19:52;;;;;;;13.13;5.25;;;;;;;13.44;47.69;102771.41;5012223;28;20566;-65
2023/05/18 08:22:18;;;;;;;11.27;5.07;;;;;;;13.50;45.81;102779.75;5019905;28;20025;-65
2023/05/18 08:24:44;;;;;;;11.68;4.95;;;;;;;13.47;46.00;102771.81;5031767;28;20047;-65
2023/05/18 08:27:10;;;;;;;16.50;4.50;;;;;;;13.56;46.52;102769.63;5021249;28;20030;-65
2023/05/18 08:29:36;;;;;;;16.33;5.20;;;;;;;13.60;46.11;102762.50;5011489;28;20505;-64
2023/05/18 08:32:01;;;;;;;11.60;4.45;;;;;;;13.68;46.04;102762.22;5012526;28;20376;-64
2023/05/18 08:34:28;;;;;;;12.55;5.10;;;;;;;13.75;46.42;102762.16;5012238;28;20413;-65
2023/05/18 08:36:54;;;;;;;10.95;4.70;;;;;;;13.77;45.99;102764.72;5011305;28;20076;-64
2023/05/18 08:39:21;;;;;;;12.00;4.70;;;;;;;13.79;45.56;102763.41;5012392;28;20389;-65
2023/05/18 08:41:54;;;;;;;12.02;4.47;;;;;;;13.82;46.00;102751.78;5020457;28;20083;-65
2023/05/18 08:44:21;;;;;;;14.30;4.55;;;;;;;13.88;45.39;102752.81;5027775;28;20065;-65
2023/05/18 08:46:50;;;;;;;11.27;4.68;;;;;;;13.95;45.52;102759.19;5028776;28;20030;-64
2023/05/18 08:49:20;;;;;;;12.35;4.15;;;;;;;13.98;44.73;102755.94;5013421;28;20101;-64
2023/05/18 08:51:52;;;;;;;10.65;4.30;;;;;;;13.99;44.29;102752.09;5011714;28;20025;-64
2023/05/18 08:54:21;;;;;;;13.15;4.65;;;;;;;14.07;44.80;102743.41;5026303;28;20053;-64
2023/05/18 08:56:47;;;;;;;8.55;4.00;;;;;;;14.12;44.63;102745.50;5017734;28;20113;-64
2023/05/18 08:59:17;;;;;;;15.48;4.53;;;;;;;14.13;43.66;102750.84;5011796;28;20105;-65
2023/05/18 09:01:43;;;;;;;11.38;4.45;;;;;;;14.16;43.74;102747.59;5021821;28;20389;-65
2023/05/18 09:04:09;;;;;;;13.82;4.88;;;;;;;14.15;44.05;102745.91;5022660;28;20033;-64
2023/05/18 09:06:35;;;;;;;13.00;4.53;;;;;;;14.19;44.08;102743.50;5011682;28;20041;-65
2023/05/18 09:09:03;;;;;;;8.90;4.10;;;;;;;14.21;44.42;102744.09;5011319;28;20025;-64
2023/05/18 09:11:30;;;;;;;13.00;4.20;;;;;;;14.23;44.34;102737.22;5022040;28;20025;-65
2023/05/18 09:13:57;;;;;;;13.05;4.15;;;;;;;14.27;42.50;102747.94;5028032;28;20017;-65
2023/05/18 09:16:23;;;;;;;14.65;4.10;;;;;;;14.18;42.68;102745.41;5026668;28;20982;-65
2023/05/18 09:18:48;;;;;;;8.90;3.70;;;;;;;14.10;42.33;102737.34;5015928;28;20076;-65
2023/05/18 09:21:14;;;;;;;9.40;3.90;;;;;;;14.09;42.29;102734.78;5010361;28;20473;-65
2023/05/18 09:23:40;;;;;;;13.05;4.50;;;;;;;14.04;41.65;102738.28;5010524;28;20034;-65
2023/05/18 09:26:08;;;;;;;8.52;3.33;;;;;;;14.01;41.66;102738.72;5009322;28;20489;-65
2023/05/18 09:28:35;;;;;;;10.30;3.83;;;;;;;13.99;42.64;102738.13;5010122;28;20080;-65
2023/05/18 09:31:02;;;;;;;10.75;3.58;;;;;;;13.94;41.84;102736.00;5009325;28;20036;-65
2023/05/18 09:33:35;;;;;;;11.55;4.30;;;;;;;13.98;42.54;102734.44;5013174;28;20018;-65
2023/05/18 09:36:03;;;;;;;11.88;4.25;;;;;;;14.09;42.00;102737.56;5009809;28;20070;-65
2023/05/18 09:38:29;;;;;;;15.07;4.65;;;;;;;14.16;41.69;102730.00;5010942;28;20073;-65
2023/05/18 09:40:54;;;;;;;14.52;4.30;;;;;;;14.26;42.06;102735.88;5006023;28;20616;-67
2023/05/18 09:43:20;;;;;;;11.20;4.00;;;;;;;14.37;41.93;102725.88;5004767;28;20036;-66
2023/05/18 09:45:47;;;;;;;13.23;4.15;;;;;;;14.47;42.14;102729.00;5018296;28;20404;-66
2023/05/18 09:48:16;;;;;;;14.55;3.63;;;;;;;14.54;41.84;102728.91;5013909;28;20025;-67
2023/05/18 09:50:44;;;;;;;9.70;3.90;;;;;;;14.51;41.80;102743.38;5020352;28;21040;-67
2023/05/18 09:53:12;;;;;;;11.77;4.32;;;;;;;14.48;41.93;102733.47;5013209;28;20032;-67
2023/05/18 09:55:44;;;;;;;11.43;3.70;;;;;;;14.48;42.02;102725.94;5024443;28;20447;-66
2023/05/18 09:58:09;;;;;;;;;;;;;;;14.63;43.11;102716.34;5012087;28;20110;-66
2023/05/18 10:00:52;;;;;;;12.23;4.95;;;;;;;14.57;41.92;102725.66;5019931;28;19920;-65
2023/05/18 10:03:23;;;;;;;7.70;3.92;;;;;;;14.66;42.85;102713.94;5021016;28;20129;-67
2023/05/18 10:05:49;;;;;;;12.05;3.90;;;;;;;14.76;42.15;102718.09;5010009;28;20532;-67
2023/05/18 10:08:15;;;;;;;10.48;4.10;;;;;;;14.74;41.75;102715.56;5025384;28;20030;-66
2023/05/18 10:10:45;;;;;;;12.45;4.15;;;;;;;14.76;41.83;102712.53;5022381;28;20079;-69
2023/05/18 10:13:17;;;;;;;8.90;3.88;;;;;;;14.74;41.57;102718.34;5017965;28;20489;-68
2023/05/18 10:15:52;;;;;;;10.43;4.00;;;;;;;14.69;41.51;102705.06;5015020;28;20103;-66
2023/05/18 10:18:26;;;;;;;11.82;4.20;;;;;;;14.66;41.72;102711.16;5011566;28;20065;-66
2023/05/18 10:20:54;;;;;;;9.90;3.92;;;;;;;14.72;41.33;102701.81;5018989;28;20091;-65
2023/05/18 10:23:21;;;;;;;15.90;4.90;;;;;;;14.82;41.87;102712.44;5011998;28;20040;-64
2023/05/18 10:25:48;;;;;;;14.73;4.28;;;;;;;14.83;39.98;102710.50;5016347;28;20022;-65
2023/05/18 10:28:29;;;;;;;12.18;4.25;;;;;;;14.89;41.01;102715.97;5015465;28;20049;-67
2023/05/18 10:30:56;;;;;;;9.18;4.05;;;;;;;14.87;39.94;102708.94;5016239;28;20022;-67
2023/05/18 10:33:23;;;;;;;7.60;3.90;;;;;;;14.93;40.14;102713.56;5006467;28;20104;-67
2023/05/18 10:35:52;;;;;;;10.25;4.18;;;;;;;14.97;40.15;102700.81;5017462;28;20045;-67
2023/05/18 10:38:20;;;;;;;17.33;3.88;;;;;;;15.02;40.50;102700.97;5012139;28;20030;-68
2023/05/18 10:40:48;;;;;;;13.90;4.53;;;;;;;15.08;41.11;102687.97;5008561;28;20389;-66
2023/05/18 10:43:15;;;;;;;10.10;4.30;;;;;;;15.12;41.80;102695.63;5016252;28;20091;-68
2023/05/18 10:45:42;;;;;;;13.30;4.00;;;;;;;15.18;41.39;102689.09;5010703;28;20116;-65
2023/05/18 10:48:09;;;;;;;9.77;4.32;;;;;;;15.19;40.22;102689.94;5007111;28;20034;-65
2023/05/18 10:50:37;;;;;;;9.43;4.43;;;;;;;15.18;39.89;102688.25;5012247;28;20061;-66
2023/05/18 10:53:05;;;;;;;12.70;4.53;;;;;;;15.12;40.39;102691.97;5013087;28;20037;-65
2023/05/18 10:55:30;;;;;;;12.95;4.30;;;;;;;15.09;40.03;102684.94;5011508;28;20820;-64
2023/05/18 10:58:04;;;;;;;8.95;4.35;;;;;;;15.10;39.79;102688.59;5010866;28;20085;-65
2023/05/18 11:00:33;;;;;;;12.20;4.78;;;;;;;15.06;40.41;102684.56;5016331;28;20032;-64
2023/05/18 11:03:00;;;;;;;11.18;4.68;;;;;;;15.03;40.77;102680.28;5027114;28;20029;-65
2023/05/18 11:05:25;;;;;;;7.57;4.30;;;;;;;15.09;41.39;102672.88;5024372;28;20057;-66
2023/05/18 11:07:59;;;;;;;9.23;3.92;;;;;;;15.17;40.36;102667.81;5014432;28;20409;-64
2023/05/18 11:10:33;;;;;;;17.33;4.75;;;;;;;15.21;40.01;102676.56;5023117;28;20041;-65
2023/05/18 11:13:00;;;;;;;12.98;4.47;;;;;;;15.25;39.46;102677.81;5004670;28;20116;-66
2023/05/18 11:15:53;;;;;;;13.43;4.55;;;;;;;15.20;40.28;102670.09;5005955;28;20115;-66
2023/05/18 11:18:19;;;;;;;11.18;5.13;;;;;;;15.25;40.67;102666.63;5002803;28;20040;-66
2023/05/18 11:20:47;;;;;;;9.88;4.68;;;;;;;15.27;40.81;102670.00;5006965;28;20025;-66